Main page
METAR-TAF:

METAR-TAF

Airports :

Helsinki Airport

Helsinki, Finland

latitude: 60-19N, longitude: 024-58E, elevation: 51 m

Current weather observation

The report was made 30 minutes ago, at 20:50 UTC
Wind 8 kt from the West/Southwest
Temperature 14°C
Humidity 77%
Pressure 1003 hPa
Visibility 10 km or more
Few clouds at a height of 3400 ft

METAR: EFHK 192050Z 24008KT 9999 FEW034 14/10 Q1003 NOSIG

Time: 00:20 (21:20 UTC)

Forecast

The report was made 46 minutes ago, at 20:34 UTC
Forecast valid from 19 at 21 UTC to 20 at 21 UTC
Wind 7 kt from the West/Southwest
Visibility 10 km or more
Scattered clouds at a height of 3500 ft
Becoming
from 20 at 00 UTC to 20 at 03 UTC
Wind 10 kt from the West/Northwest
Temporary
from 20 at 07 UTC to 20 at 14 UTC
Wind 15 kt from the West/Northwest with gusts up to 25 kt

TAF: EFHK 192034Z 1921/2021 24007KT 9999 SCT035 BECMG 2000/2003 30010KT TEMPO 2007/2014 30015G25KT

Weather observations and forecasts of more than 4000 airports (METAR and TAF reports).

The available stations are represented by yellow and red dots on the map.

Hover mouse over dot to see the name of the station.

Then click to see weather observations and forecasts.

To change the map : click on the green buttons with a black cross to zoom in, on the green button with a dash to zoom out, or on the green arrows for adjacent maps.


METAR-TAF: